createdAt,value
2018-06-20T00:00:35.381Z,22.04
2018-06-20T00:03:04.719Z,22.03
2018-06-20T00:05:34.061Z,22.01
2018-06-20T00:14:09.017Z,21.86
2018-06-20T00:16:38.476Z,21.82
2018-06-20T00:19:07.447Z,21.80
2018-06-20T00:21:36.589Z,21.78
2018-06-20T00:24:06.023Z,21.74
2018-06-20T00:26:35.501Z,21.69
2018-06-20T00:29:07.683Z,21.70
2018-06-20T00:31:37.176Z,21.64
2018-06-20T00:34:06.571Z,21.61
2018-06-20T00:36:36.613Z,21.62
2018-06-20T00:39:08.633Z,21.60
2018-06-20T00:41:38.733Z,21.57
2018-06-20T00:44:08.292Z,21.54
2018-06-20T00:46:37.405Z,21.50
2018-06-20T00:49:06.797Z,21.47
2018-06-20T00:51:35.935Z,21.44
2018-06-20T00:54:05.069Z,21.37
2018-06-20T00:56:34.198Z,21.30
2018-06-20T00:59:06.732Z,21.28
2018-06-20T01:01:38.037Z,21.24
2018-06-20T01:04:07.230Z,21.19
2018-06-20T01:06:36.277Z,21.19
2018-06-20T01:09:14.331Z,21.17
2018-06-20T01:11:43.464Z,21.12
2018-06-20T01:14:13.532Z,21.12
2018-06-20T01:16:42.600Z,21.11
2018-06-20T01:19:11.600Z,21.05
2018-06-20T01:21:40.921Z,21.03
2018-06-20T01:24:09.951Z,21.02
2018-06-20T01:26:43.327Z,20.99
2018-06-20T01:38:36.806Z,20.80
2018-06-20T01:41:06.055Z,20.76
2018-06-20T01:43:35.343Z,20.74
2018-06-20T01:46:04.766Z,20.73
2018-06-20T01:48:37.820Z,20.71
2018-06-20T01:51:07.766Z,20.63
2018-06-20T01:53:37.086Z,20.61
2018-06-20T01:56:06.368Z,20.65
2018-06-20T01:58:37.052Z,20.58
2018-06-20T02:09:17.152Z,20.38
2018-06-20T02:11:46.248Z,20.34
2018-06-20T02:14:15.513Z,20.34
2018-06-20T02:16:44.718Z,20.33
2018-06-20T02:19:14.406Z,20.33
2018-06-20T02:21:49.942Z,20.35
2018-06-20T02:24:19.301Z,20.34
2018-06-20T02:26:53.995Z,20.30
2018-06-20T02:29:23.221Z,20.25
2018-06-20T02:31:52.356Z,20.22
2018-06-20T02:34:21.480Z,20.20
2018-06-20T02:36:52.628Z,20.16
2018-06-20T02:39:36.602Z,20.21
2018-06-20T02:52:53.037Z,20.06
2018-06-20T02:55:22.175Z,20.14
2018-06-20T02:57:51.269Z,20.20
2018-06-20T03:00:20.421Z,20.22
2018-06-20T03:02:50.045Z,20.32
2018-06-20T03:05:19.174Z,20.38
2018-06-20T03:07:48.553Z,20.46
2018-06-20T03:10:17.660Z,20.56
2018-06-20T03:12:46.702Z,20.61
2018-06-20T03:15:16.010Z,20.72
2018-06-20T03:17:45.227Z,20.83
2018-06-20T03:20:14.309Z,20.92
2018-06-20T03:22:43.351Z,21.08
2018-06-20T03:25:12.437Z,21.19
2018-06-20T03:27:41.384Z,21.32
2018-06-20T03:30:10.427Z,21.43
2018-06-20T03:32:39.489Z,21.44
2018-06-20T03:35:08.540Z,21.59
2018-06-20T03:37:37.916Z,21.80
2018-06-20T03:40:06.979Z,21.90
2018-06-20T03:42:36.198Z,22.10
2018-06-20T03:45:05.383Z,22.33
2018-06-20T03:47:34.386Z,22.51
2018-06-20T03:50:03.295Z,22.64
2018-06-20T03:52:32.311Z,22.78
2018-06-20T03:55:02.068Z,22.94
2018-06-20T03:57:31.045Z,23.07
2018-06-20T04:00:00.208Z,23.14
2018-06-20T04:02:29.142Z,23.37
2018-06-20T04:04:58.290Z,23.60
2018-06-20T04:07:27.504Z,23.81
2018-06-20T04:09:56.439Z,23.79
2018-06-20T04:12:25.647Z,23.98
2018-06-20T04:14:54.827Z,24.24
2018-06-20T04:17:24.032Z,24.44
2018-06-20T04:19:53.054Z,24.59
2018-06-20T04:22:22.218Z,24.84
2018-06-20T04:24:51.444Z,24.99
2018-06-20T04:27:20.750Z,25.20
2018-06-20T04:29:50.077Z,25.31
2018-06-20T04:32:19.312Z,25.28
2018-06-20T04:34:48.713Z,25.43
2018-06-20T04:37:17.809Z,25.52
2018-06-20T04:39:46.939Z,25.86
2018-06-20T04:42:17.747Z,26.10
2018-06-20T04:44:47.150Z,26.47
2018-06-20T04:47:18.666Z,26.70
2018-06-20T05:01:52.441Z,27.80
2018-06-20T05:04:21.558Z,27.99
2018-06-20T05:06:50.644Z,28.40
2018-06-20T05:09:21.818Z,28.42
2018-06-20T05:14:44.457Z,28.73
2018-06-20T05:17:13.727Z,28.71
2018-06-20T05:19:43.975Z,28.88
2018-06-20T05:22:13.027Z,29.03
2018-06-20T05:24:41.949Z,29.25
2018-06-20T05:27:11.151Z,29.32
2018-06-20T05:29:40.132Z,29.81
2018-06-20T05:32:09.178Z,29.82
2018-06-20T05:34:38.290Z,29.75
2018-06-20T05:37:07.299Z,29.92
2018-06-20T05:39:36.358Z,30.05
2018-06-20T05:42:05.536Z,30.11
2018-06-20T05:44:34.489Z,30.68
2018-06-20T05:47:03.387Z,30.27
2018-06-20T05:49:32.358Z,30.22
2018-06-20T05:52:01.326Z,30.05
2018-06-20T05:54:30.438Z,30.15
2018-06-20T05:56:59.439Z,30.35
2018-06-20T05:59:28.445Z,30.60
2018-06-20T06:01:58.031Z,30.71
2018-06-20T06:04:27.043Z,30.74
2018-06-20T06:06:56.078Z,30.65
2018-06-20T06:09:25.393Z,30.55
2018-06-20T06:11:54.489Z,30.26
2018-06-20T06:14:23.501Z,30.38
2018-06-20T06:16:52.813Z,30.45
2018-06-20T06:19:22.461Z,30.27
2018-06-20T06:21:52.544Z,30.41
2018-06-20T06:24:21.552Z,30.03
2018-06-20T06:26:50.760Z,29.78
2018-06-20T06:29:20.486Z,29.28
2018-06-20T06:31:49.342Z,29.19
2018-06-20T06:34:18.386Z,28.98
2018-06-20T06:36:47.403Z,28.78
2018-06-20T06:39:16.414Z,28.54
2018-06-20T06:41:45.592Z,28.59
2018-06-20T06:44:14.457Z,28.85
2018-06-20T06:46:43.485Z,28.80
2018-06-20T06:49:12.526Z,28.73
2018-06-20T06:51:41.485Z,28.71
2018-06-20T06:54:10.398Z,28.81
2018-06-20T06:56:39.446Z,28.92
2018-06-20T06:59:08.507Z,28.84
2018-06-20T07:01:37.382Z,29.01
2018-06-20T07:04:06.391Z,29.00
2018-06-20T07:06:35.314Z,29.17
2018-06-20T07:09:05.584Z,29.01
2018-06-20T07:11:34.480Z,29.06
2018-06-20T07:14:03.437Z,29.23
2018-06-20T07:16:32.455Z,29.18
2018-06-20T07:19:01.386Z,29.24
2018-06-20T07:21:30.355Z,29.21
2018-06-20T07:23:59.295Z,29.24
2018-06-20T07:26:28.205Z,29.06
2018-06-20T07:28:57.208Z,29.37
2018-06-20T07:31:26.199Z,29.48
2018-06-20T07:33:55.360Z,29.27
2018-06-20T07:36:24.576Z,28.95
2018-06-20T07:38:53.515Z,29.20
2018-06-20T07:41:22.541Z,29.25
2018-06-20T07:43:51.553Z,29.25
2018-06-20T07:46:20.646Z,29.20
2018-06-20T07:48:49.614Z,29.30
2018-06-20T07:51:18.544Z,29.41
2018-06-20T07:53:47.440Z,29.07
2018-06-20T07:56:16.363Z,29.38
2018-06-20T07:58:50.492Z,29.30
2018-06-20T08:01:35.681Z,29.35
2018-06-20T08:04:09.864Z,29.45
2018-06-20T08:06:43.833Z,29.52
2018-06-20T08:09:17.886Z,29.69
2018-06-20T08:11:51.891Z,29.84
2018-06-20T08:14:25.845Z,29.65
2018-06-20T08:17:00.371Z,29.65
2018-06-20T08:19:34.339Z,29.34
2018-06-20T08:22:03.308Z,29.39
2018-06-20T08:24:32.330Z,29.51
2018-06-20T08:27:01.332Z,29.58
2018-06-20T08:29:30.194Z,29.57
2018-06-20T08:31:59.202Z,29.64
2018-06-20T08:34:28.114Z,29.90
2018-06-20T08:36:57.109Z,30.13
2018-06-20T08:39:25.946Z,30.32
2018-06-20T08:41:54.830Z,30.26
2018-06-20T08:44:23.819Z,30.33
2018-06-20T08:46:52.761Z,30.24
2018-06-20T08:49:21.725Z,30.49
2018-06-20T08:51:50.619Z,30.23
2018-06-20T08:54:19.620Z,30.20
2018-06-20T08:56:48.550Z,30.26
2018-06-20T08:59:17.645Z,30.64
2018-06-20T09:01:46.639Z,30.92
2018-06-20T09:04:20.790Z,31.22
2018-06-20T09:06:54.887Z,31.48
2018-06-20T09:09:28.764Z,31.34
2018-06-20T09:12:02.861Z,31.12
2018-06-20T09:14:36.184Z,31.18
2018-06-20T09:17:10.291Z,31.34
2018-06-20T09:19:50.422Z,31.65
2018-06-20T09:22:19.560Z,31.94
2018-06-20T09:24:48.648Z,31.80
2018-06-20T09:27:17.585Z,31.71
2018-06-20T09:29:46.481Z,32.06
2018-06-20T09:32:15.855Z,32.34
2018-06-20T09:34:45.452Z,32.50
2018-06-20T09:37:14.469Z,32.52
2018-06-20T09:39:43.536Z,32.70
2018-06-20T09:42:12.408Z,32.78
2018-06-20T09:44:41.369Z,32.54
2018-06-20T09:47:10.256Z,32.52
2018-06-20T09:49:39.175Z,32.49
2018-06-20T09:52:08.171Z,32.57
2018-06-20T09:54:37.130Z,32.02
2018-06-20T09:57:06.149Z,31.92
2018-06-20T09:59:40.053Z,32.04
2018-06-20T10:02:14.046Z,31.68
2018-06-20T10:04:48.028Z,31.67
2018-06-20T10:07:25.864Z,31.62
2018-06-20T10:12:03.355Z,31.62
2018-06-20T10:14:32.422Z,31.87
2018-06-20T10:17:01.331Z,31.71
2018-06-20T10:19:30.248Z,31.84
2018-06-20T10:21:59.187Z,31.89
2018-06-20T10:24:28.146Z,32.07
2018-06-20T10:26:57.147Z,32.15
2018-06-20T10:29:26.089Z,31.98
2018-06-20T10:31:55.971Z,32.02
2018-06-20T10:34:24.867Z,31.90
2018-06-20T10:36:53.802Z,32.08
2018-06-20T10:39:22.723Z,32.18
2018-06-20T10:41:51.704Z,32.15
2018-06-20T10:44:20.694Z,32.02
2018-06-20T10:46:54.908Z,31.94
2018-06-20T10:49:24.064Z,31.91
2018-06-20T10:51:53.007Z,31.90
2018-06-20T10:54:21.928Z,31.47
2018-06-20T10:56:56.171Z,31.91
2018-06-20T10:59:30.258Z,32.12
2018-06-20T11:02:04.434Z,32.09
2018-06-20T11:04:38.353Z,31.87
2018-06-20T11:07:12.519Z,32.18
2018-06-20T11:09:46.508Z,32.06
2018-06-20T11:12:20.707Z,32.45
2018-06-20T11:14:49.610Z,32.32
2018-06-20T11:17:18.586Z,32.49
2018-06-20T11:19:47.548Z,33.16
2018-06-20T11:22:16.508Z,33.77
2018-06-20T11:24:45.386Z,33.09
2018-06-20T11:27:14.863Z,32.99
2018-06-20T11:29:43.746Z,33.02
2018-06-20T11:32:12.688Z,33.41
2018-06-20T11:34:41.802Z,33.26
2018-06-20T11:37:17.439Z,33.49
2018-06-20T11:39:46.559Z,34.06
2018-06-20T11:42:15.680Z,34.44
2018-06-20T11:44:44.630Z,34.86
2018-06-20T11:51:01.395Z,33.79
2018-06-20T11:53:30.492Z,33.05
2018-06-20T12:01:50.222Z,34.03
2018-06-20T12:04:24.295Z,33.36
2018-06-20T12:06:58.595Z,34.07
2018-06-20T12:09:33.147Z,34.42
2018-06-20T12:12:14.953Z,33.11
2018-06-20T12:14:49.852Z,33.28
2018-06-20T12:17:29.333Z,33.32
2018-06-20T12:20:16.951Z,33.38
2018-06-20T12:25:35.964Z,32.38
2018-06-20T12:29:55.098Z,32.57
2018-06-20T12:32:30.512Z,33.04
2018-06-20T12:35:04.875Z,33.34
2018-06-20T12:37:39.010Z,34.00
2018-06-20T12:40:13.545Z,34.50
2018-06-20T12:44:55.246Z,35.00
2018-06-20T12:47:37.629Z,34.16
2018-06-20T12:50:13.570Z,33.85
2018-06-20T12:52:42.734Z,33.20
2018-06-20T12:55:12.336Z,33.40
2018-06-20T12:57:43.885Z,33.16
2018-06-20T13:00:16.820Z,33.32
2018-06-20T13:02:46.540Z,33.56
2018-06-20T13:05:16.134Z,33.50
2018-06-20T13:08:47.726Z,33.55
2018-06-20T13:11:16.814Z,32.84
2018-06-20T13:13:45.873Z,32.64
2018-06-20T13:16:14.884Z,32.57
2018-06-20T13:18:55.576Z,32.33
2018-06-20T13:21:24.618Z,31.91
2018-06-20T13:23:53.642Z,31.97
2018-06-20T13:26:23.644Z,31.95
2018-06-20T13:28:53.141Z,32.18
2018-06-20T13:31:27.603Z,32.44
2018-06-20T13:34:01.722Z,32.73
2018-06-20T13:36:36.217Z,32.91
2018-06-20T13:39:12.752Z,32.84
2018-06-20T13:41:47.723Z,32.17
2018-06-20T13:44:21.721Z,31.96
2018-06-20T13:49:01.570Z,32.00
2018-06-20T13:51:30.695Z,32.39
2018-06-20T13:53:59.926Z,32.31
2018-06-20T13:56:29.095Z,32.39
2018-06-20T13:58:58.193Z,32.77
2018-06-20T14:01:27.333Z,32.73
2018-06-20T14:03:56.411Z,32.77
2018-06-20T14:06:25.255Z,32.84
2018-06-20T14:08:54.230Z,32.94
2018-06-20T14:11:23.275Z,32.93
2018-06-20T14:13:52.340Z,32.59
2018-06-20T14:16:21.460Z,32.60
2018-06-20T14:18:50.527Z,32.84
2018-06-20T14:21:24.704Z,32.92
2018-06-20T14:23:53.800Z,32.86
2018-06-20T14:26:23.503Z,32.86
2018-06-20T14:28:52.627Z,32.93
2018-06-20T14:31:27.008Z,32.94
2018-06-20T14:34:01.278Z,33.07
2018-06-20T14:36:35.505Z,33.12
2018-06-20T14:39:11.809Z,32.68
2018-06-20T14:41:45.800Z,32.52
2018-06-20T14:44:14.817Z,32.65
2018-06-20T14:46:43.860Z,32.68
2018-06-20T14:49:13.092Z,32.83
2018-06-20T14:51:42.150Z,32.93
2018-06-20T14:54:11.245Z,32.74
2018-06-20T14:56:40.404Z,32.62
2018-06-20T14:59:09.436Z,33.11
2018-06-20T15:01:38.569Z,33.28
2018-06-20T15:04:07.698Z,33.30
2018-06-20T15:06:36.752Z,33.05
2018-06-20T15:09:08.000Z,32.92
2018-06-20T15:11:37.267Z,33.08
2018-06-20T15:14:06.338Z,33.16
2018-06-20T15:16:40.392Z,32.94
2018-06-20T15:19:09.339Z,32.74
2018-06-20T15:21:38.347Z,32.75
2018-06-20T15:24:07.200Z,32.83
2018-06-20T15:26:41.158Z,33.05
2018-06-20T15:29:15.187Z,32.63
2018-06-20T15:31:49.143Z,32.84
2018-06-20T15:34:23.043Z,32.94
2018-06-20T15:36:57.016Z,32.81
2018-06-20T15:39:26.096Z,32.61
2018-06-20T15:41:55.123Z,32.58
2018-06-20T15:44:24.065Z,32.41
2018-06-20T15:46:53.028Z,32.14
2018-06-20T15:49:21.902Z,31.87
2018-06-20T15:51:50.793Z,31.83
2018-06-20T15:54:19.830Z,31.65
2018-06-20T15:56:48.810Z,31.49
2018-06-20T15:59:17.732Z,31.55
2018-06-20T16:01:46.795Z,31.53
2018-06-20T16:04:15.717Z,31.40
2018-06-20T16:06:44.754Z,31.47
2018-06-20T16:09:18.792Z,31.30
2018-06-20T16:11:47.755Z,31.49
2018-06-20T16:14:16.864Z,31.51
2018-06-20T16:16:45.994Z,31.71
2018-06-20T16:19:19.994Z,31.57
2018-06-20T16:21:54.074Z,31.38
2018-06-20T16:24:28.105Z,31.31
2018-06-20T16:27:02.273Z,31.27
2018-06-20T16:29:36.276Z,31.26
2018-06-20T16:32:05.278Z,31.18
2018-06-20T16:34:34.285Z,31.09
2018-06-20T16:37:03.196Z,30.93
2018-06-20T16:39:32.162Z,30.89
2018-06-20T16:42:01.145Z,30.85
2018-06-20T16:44:31.091Z,30.80
2018-06-20T16:47:00.184Z,30.72
2018-06-20T16:49:29.131Z,30.64
2018-06-20T16:51:58.170Z,30.40
2018-06-20T16:54:27.123Z,30.44
2018-06-20T16:56:55.980Z,30.43
2018-06-20T16:59:25.000Z,30.34
2018-06-20T17:01:59.025Z,30.33
2018-06-20T17:04:28.167Z,30.31
2018-06-20T17:06:58.185Z,30.25
2018-06-20T17:09:27.385Z,30.15
2018-06-20T17:12:01.388Z,30.10
2018-06-20T17:14:36.707Z,29.93
2018-06-20T17:17:11.138Z,29.87
2018-06-20T17:19:45.470Z,29.88
2018-06-20T17:24:23.231Z,29.87
2018-06-20T17:26:52.240Z,29.67
2018-06-20T17:29:21.380Z,29.71
2018-06-20T17:31:50.605Z,29.70
2018-06-20T17:34:19.855Z,29.63
2018-06-20T17:36:49.168Z,29.72
2018-06-20T17:39:18.510Z,29.73
2018-06-20T17:41:47.608Z,29.63
2018-06-20T17:44:16.702Z,29.68
2018-06-20T17:46:46.025Z,29.67
2018-06-20T17:49:15.697Z,29.65
2018-06-20T17:51:44.845Z,29.54
2018-06-20T17:54:13.802Z,29.54
2018-06-20T17:56:42.959Z,29.50
2018-06-20T17:59:12.575Z,29.46
2018-06-20T18:01:41.537Z,29.38
2018-06-20T18:04:11.788Z,29.33
2018-06-20T18:06:45.792Z,29.25
2018-06-20T18:09:19.815Z,29.25
2018-06-20T18:11:54.071Z,29.19
2018-06-20T18:14:28.170Z,29.14
2018-06-20T18:16:57.945Z,29.11
2018-06-20T18:19:27.033Z,29.07
2018-06-20T18:21:56.008Z,29.06
2018-06-20T18:24:25.553Z,29.05
2018-06-20T18:26:54.959Z,29.03
2018-06-20T18:29:24.087Z,29.02
2018-06-20T18:31:53.280Z,28.98
2018-06-20T18:34:22.283Z,28.91
2018-06-20T18:36:51.375Z,28.88
2018-06-20T18:39:20.466Z,28.78
2018-06-20T18:41:49.636Z,28.71
2018-06-20T18:44:18.813Z,28.59
2018-06-20T18:46:52.027Z,28.49
2018-06-20T18:49:21.400Z,28.36
2018-06-20T18:51:50.455Z,28.23
2018-06-20T18:54:19.665Z,28.22
2018-06-20T18:56:48.956Z,28.19
2018-06-20T18:59:23.972Z,28.07
2018-06-20T19:01:57.968Z,27.95
2018-06-20T19:04:33.130Z,27.88
2018-06-20T19:07:08.641Z,27.77
2018-06-20T19:09:37.964Z,27.72
2018-06-20T19:12:07.236Z,27.64
2018-06-20T19:14:36.534Z,27.63
2018-06-20T19:17:08.607Z,27.54
2018-06-20T19:19:40.572Z,27.45
2018-06-20T19:22:09.662Z,27.39
2018-06-20T19:24:38.834Z,27.35
2018-06-20T19:27:07.952Z,27.32
2018-06-20T19:29:37.526Z,27.32
2018-06-20T19:32:06.545Z,27.29
2018-06-20T19:34:35.707Z,27.41
2018-06-20T19:37:04.958Z,27.43
2018-06-20T19:39:39.080Z,27.41
2018-06-20T19:42:08.317Z,27.26
2018-06-20T19:44:37.433Z,27.30
2018-06-20T19:47:07.209Z,27.24
2018-06-20T19:49:36.169Z,27.16
2018-06-20T19:52:05.389Z,27.11
2018-06-20T19:54:34.430Z,27.09
2018-06-20T19:57:03.427Z,27.10
2018-06-20T19:59:32.496Z,26.99
2018-06-20T20:02:01.519Z,26.88
2018-06-20T20:04:31.637Z,26.84
2018-06-20T20:07:00.835Z,26.86
2018-06-20T20:09:30.093Z,26.76
2018-06-20T20:11:59.305Z,26.59
2018-06-20T20:14:28.453Z,26.56
2018-06-20T20:16:57.617Z,26.50
2018-06-20T20:19:26.868Z,26.53
2018-06-20T20:21:56.058Z,26.42
2018-06-20T20:24:25.357Z,26.44
2018-06-20T20:26:54.644Z,26.42
2018-06-20T20:29:24.104Z,26.40
2018-06-20T20:31:53.548Z,26.25
2018-06-20T20:34:22.558Z,26.11
2018-06-20T20:36:51.788Z,25.97
2018-06-20T20:39:20.877Z,25.97
2018-06-20T20:41:50.387Z,25.88
2018-06-20T20:44:19.861Z,25.74
2018-06-20T20:46:49.143Z,25.60
2018-06-20T20:49:18.627Z,25.50
2018-06-20T20:51:47.756Z,25.47
2018-06-20T20:54:16.724Z,25.41
2018-06-20T20:56:46.033Z,25.31
2018-06-20T20:59:15.209Z,25.37
2018-06-20T21:01:44.319Z,25.41
2018-06-20T21:04:14.018Z,25.49
2018-06-20T21:06:43.078Z,25.41
2018-06-20T21:09:12.400Z,25.28
2018-06-20T21:11:43.489Z,25.30
2018-06-20T21:14:12.566Z,25.30
2018-06-20T21:16:41.727Z,25.25
2018-06-20T21:19:10.953Z,25.27
2018-06-20T21:21:40.033Z,25.26
2018-06-20T21:24:09.210Z,25.14
2018-06-20T21:26:39.193Z,25.13
2018-06-20T21:29:08.300Z,25.09
2018-06-20T21:31:37.489Z,24.99
2018-06-20T21:34:06.601Z,25.03
2018-06-20T21:36:35.658Z,24.99
2018-06-20T21:39:06.732Z,25.01
2018-06-20T21:41:36.035Z,24.91
2018-06-20T21:44:05.149Z,24.86
2018-06-20T21:46:34.284Z,24.70
2018-06-20T21:49:03.486Z,24.67
2018-06-20T21:51:33.203Z,24.59
2018-06-20T21:54:02.414Z,24.51
2018-06-20T21:56:31.339Z,24.48
2018-06-20T21:59:00.392Z,24.43
2018-06-20T22:01:29.363Z,24.46
2018-06-20T22:03:58.453Z,24.52
2018-06-20T22:06:27.588Z,24.50
2018-06-20T22:08:56.703Z,24.41
2018-06-20T22:11:25.917Z,24.32
2018-06-20T22:13:55.040Z,24.24
2018-06-20T22:16:24.235Z,24.14
2018-06-20T22:18:53.228Z,24.06
2018-06-20T22:21:22.215Z,23.99
2018-06-20T22:24:08.425Z,23.97
2018-06-20T22:26:37.867Z,23.87
2018-06-20T22:29:07.169Z,23.87
2018-06-20T22:31:36.254Z,23.80
2018-06-20T22:34:05.279Z,23.86
2018-06-20T22:36:34.349Z,24.00
2018-06-20T22:39:03.560Z,24.00
2018-06-20T22:41:32.775Z,24.07
2018-06-20T22:44:02.845Z,24.05
2018-06-20T22:46:32.022Z,24.05
2018-06-20T22:49:01.048Z,24.02
2018-06-20T22:51:30.047Z,24.00
2018-06-20T22:53:59.176Z,23.93
2018-06-20T22:56:28.412Z,23.85
2018-06-20T22:58:57.419Z,23.83
2018-06-20T23:01:26.384Z,23.76
2018-06-20T23:03:55.565Z,23.73
2018-06-20T23:06:25.066Z,23.68
2018-06-20T23:08:54.317Z,23.62
2018-06-20T23:11:23.489Z,23.56
2018-06-20T23:13:52.727Z,23.49
2018-06-20T23:16:22.139Z,23.43
2018-06-20T23:18:52.243Z,23.36
2018-06-20T23:21:21.382Z,23.30
2018-06-20T23:23:50.376Z,23.25
2018-06-20T23:26:19.338Z,23.18
2018-06-20T23:28:48.326Z,23.13
2018-06-20T23:31:17.544Z,23.09
2018-06-20T23:33:46.445Z,23.03
2018-06-20T23:36:15.687Z,22.98
2018-06-20T23:38:44.683Z,22.94
2018-06-20T23:41:13.997Z,22.91
2018-06-20T23:43:43.918Z,22.85
2018-06-20T23:46:13.104Z,22.85
2018-06-20T23:48:42.065Z,22.78
2018-06-20T23:51:11.318Z,22.71
2018-06-20T23:53:40.621Z,22.65
2018-06-20T23:56:09.848Z,22.53
2018-06-20T23:58:38.905Z,22.44
